sensor_id;sensor_type;location;lat;lon;timestamp;P1;durP1;ratioP1;P2;durP2;ratioP2
75087;SDS011;63664;44.868;40.600;2023-02-13T00:01:05;10.40;;;5.18;;
75087;SDS011;63664;44.868;40.600;2023-02-13T00:03:32;13.57;;;6.00;;
75087;SDS011;63664;44.868;40.600;2023-02-13T00:05:58;8.93;;;4.85;;
75087;SDS011;63664;44.868;40.600;2023-02-13T00:08:25;6.25;;;2.92;;
75087;SDS011;63664;44.868;40.600;2023-02-13T00:10:54;9.82;;;4.75;;
75087;SDS011;63664;44.868;40.600;2023-02-13T00:13:20;10.60;;;3.83;;
75087;SDS011;63664;44.868;40.600;2023-02-13T00:15:58;9.45;;;4.63;;
75087;SDS011;63664;44.868;40.600;2023-02-13T00:18:27;5.97;;;3.42;;
75087;SDS011;63664;44.868;40.600;2023-02-13T00:20:57;10.02;;;5.20;;
75087;SDS011;63664;44.868;40.600;2023-02-13T00:23:25;15.15;;;5.55;;
75087;SDS011;63664;44.868;40.600;2023-02-13T00:25:51;8.50;;;4.47;;
75087;SDS011;63664;44.868;40.600;2023-02-13T00:28:20;8.27;;;4.05;;
75087;SDS011;63664;44.868;40.600;2023-02-13T00:30:46;8.95;;;4.35;;
75087;SDS011;63664;44.868;40.600;2023-02-13T00:33:12;11.30;;;5.00;;
75087;SDS011;63664;44.868;40.600;2023-02-13T00:35:41;8.02;;;4.78;;
75087;SDS011;63664;44.868;40.600;2023-02-13T00:38:08;9.82;;;4.53;;
75087;SDS011;63664;44.868;40.600;2023-02-13T00:40:34;9.10;;;4.45;;
75087;SDS011;63664;44.868;40.600;2023-02-13T00:43:00;7.63;;;4.50;;
75087;SDS011;63664;44.868;40.600;2023-02-13T00:45:28;9.73;;;4.75;;
75087;SDS011;63664;44.868;40.600;2023-02-13T00:47:55;10.75;;;4.60;;
75087;SDS011;63664;44.868;40.600;2023-02-13T00:50:21;9.63;;;4.18;;
75087;SDS011;63664;44.868;40.600;2023-02-13T00:52:52;7.25;;;3.42;;
75087;SDS011;63664;44.868;40.600;2023-02-13T00:55:18;10.60;;;3.83;;
75087;SDS011;63664;44.868;40.600;2023-02-13T00:57:45;7.50;;;3.30;;
75087;SDS011;63664;44.868;40.600;2023-02-13T01:00:14;10.35;;;3.90;;
75087;SDS011;63664;44.868;40.600;2023-02-13T01:02:43;7.03;;;2.47;;
75087;SDS011;63664;44.868;40.600;2023-02-13T01:05:09;4.63;;;2.78;;
75087;SDS011;63664;44.868;40.600;2023-02-13T01:07:36;3.40;;;2.08;;
75087;SDS011;63664;44.868;40.600;2023-02-13T01:10:05;6.40;;;2.83;;
75087;SDS011;63664;44.868;40.600;2023-02-13T01:12:34;8.02;;;3.72;;
75087;SDS011;63664;44.868;40.600;2023-02-13T01:15:01;8.50;;;3.58;;
75087;SDS011;63664;44.868;40.600;2023-02-13T01:17:28;6.45;;;2.90;;
75087;SDS011;63664;44.868;40.600;2023-02-13T01:19:57;8.63;;;3.58;;
75087;SDS011;63664;44.868;40.600;2023-02-13T01:22:25;7.88;;;3.67;;
75087;SDS011;63664;44.868;40.600;2023-02-13T01:24:51;6.28;;;3.13;;
75087;SDS011;63664;44.868;40.600;2023-02-13T01:27:20;6.38;;;3.28;;
75087;SDS011;63664;44.868;40.600;2023-02-13T01:29:49;6.95;;;3.10;;
75087;SDS011;63664;44.868;40.600;2023-02-13T01:32:16;4.40;;;2.75;;
75087;SDS011;63664;44.868;40.600;2023-02-13T01:34:43;2.92;;;1.83;;
75087;SDS011;63664;44.868;40.600;2023-02-13T01:37:10;4.25;;;2.13;;
75087;SDS011;63664;44.868;40.600;2023-02-13T01:39:38;4.65;;;1.67;;
75087;SDS011;63664;44.868;40.600;2023-02-13T01:42:05;3.58;;;1.67;;
75087;SDS011;63664;44.868;40.600;2023-02-13T01:44:49;5.03;;;2.22;;
75087;SDS011;63664;44.868;40.600;2023-02-13T01:47:25;6.05;;;2.70;;
75087;SDS011;63664;44.868;40.600;2023-02-13T01:50:12;5.78;;;1.80;;
75087;SDS011;63664;44.868;40.600;2023-02-13T01:52:49;3.33;;;1.60;;
75087;SDS011;63664;44.868;40.600;2023-02-13T01:55:25;5.93;;;2.03;;
75087;SDS011;63664;44.868;40.600;2023-02-13T01:58:03;4.40;;;2.60;;
75087;SDS011;63664;44.868;40.600;2023-02-13T02:00:34;9.85;;;3.70;;
75087;SDS011;63664;44.868;40.600;2023-02-13T02:03:14;6.00;;;2.25;;
75087;SDS011;63664;44.868;40.600;2023-02-13T02:05:50;5.88;;;1.85;;
75087;SDS011;63664;44.868;40.600;2023-02-13T02:08:18;2.05;;;1.50;;
75087;SDS011;63664;44.868;40.600;2023-02-13T02:10:51;4.22;;;2.10;;
75087;SDS011;63664;44.868;40.600;2023-02-13T02:13:21;6.05;;;1.90;;
75087;SDS011;63664;44.868;40.600;2023-02-13T02:15:52;2.78;;;1.40;;
75087;SDS011;63664;44.868;40.600;2023-02-13T02:18:20;3.00;;;1.90;;
75087;SDS011;63664;44.868;40.600;2023-02-13T02:21:10;2.90;;;1.60;;
75087;SDS011;63664;44.868;40.600;2023-02-13T02:30:37;4.32;;;1.70;;
75087;SDS011;63664;44.868;40.600;2023-02-13T02:39:12;5.07;;;2.83;;
75087;SDS011;63664;44.868;40.600;2023-02-13T02:53:32;3.67;;;1.40;;
75087;SDS011;63664;44.868;40.600;2023-02-13T02:59:08;4.75;;;1.73;;
75087;SDS011;63664;44.868;40.600;2023-02-13T03:01:54;12.20;;;2.38;;
75087;SDS011;63664;44.868;40.600;2023-02-13T03:04:45;2.80;;;1.60;;
75087;SDS011;63664;44.868;40.600;2023-02-13T03:07:33;5.28;;;1.85;;
75087;SDS011;63664;44.868;40.600;2023-02-13T03:10:03;5.25;;;2.42;;
75087;SDS011;63664;44.868;40.600;2023-02-13T03:13:14;8.80;;;2.92;;
75087;SDS011;63664;44.868;40.600;2023-02-13T03:15:56;7.68;;;3.63;;
75087;SDS011;63664;44.868;40.600;2023-02-13T03:18:44;4.38;;;2.58;;
75087;SDS011;63664;44.868;40.600;2023-02-13T03:35:53;3.20;;;1.40;;
75087;SDS011;63664;44.868;40.600;2023-02-13T03:38:49;3.70;;;1.73;;
75087;SDS011;63664;44.868;40.600;2023-02-13T03:41:48;6.97;;;2.40;;
75087;SDS011;63664;44.868;40.600;2023-02-13T03:44:27;4.70;;;2.45;;
75087;SDS011;63664;44.868;40.600;2023-02-13T03:47:03;6.57;;;1.92;;
75087;SDS011;63664;44.868;40.600;2023-02-13T03:49:43;8.05;;;2.97;;
75087;SDS011;63664;44.868;40.600;2023-02-13T03:53:08;5.05;;;2.58;;
75087;SDS011;63664;44.868;40.600;2023-02-13T03:55:37;5.57;;;2.85;;
75087;SDS011;63664;44.868;40.600;2023-02-13T03:58:31;7.40;;;2.67;;
75087;SDS011;63664;44.868;40.600;2023-02-13T04:01:21;6.00;;;3.53;;
75087;SDS011;63664;44.868;40.600;2023-02-13T04:06:41;6.13;;;3.60;;
75087;SDS011;63664;44.868;40.600;2023-02-13T04:09:11;6.93;;;3.45;;
75087;SDS011;63664;44.868;40.600;2023-02-13T04:11:48;9.93;;;3.38;;
75087;SDS011;63664;44.868;40.600;2023-02-13T04:14:56;7.13;;;3.38;;
75087;SDS011;63664;44.868;40.600;2023-02-13T04:17:36;5.97;;;2.65;;
75087;SDS011;63664;44.868;40.600;2023-02-13T04:20:07;5.95;;;2.58;;
75087;SDS011;63664;44.868;40.600;2023-02-13T04:22:34;3.25;;;2.25;;
75087;SDS011;63664;44.868;40.600;2023-02-13T04:25:10;4.20;;;2.42;;
75087;SDS011;63664;44.868;40.600;2023-02-13T04:27:40;3.83;;;2.33;;
75087;SDS011;63664;44.868;40.600;2023-02-13T04:30:07;3.28;;;1.98;;
75087;SDS011;63664;44.868;40.600;2023-02-13T04:32:34;1.63;;;1.27;;
75087;SDS011;63664;44.868;40.600;2023-02-13T04:35:05;3.55;;;2.15;;
75087;SDS011;63664;44.868;40.600;2023-02-13T04:37:31;3.53;;;1.55;;
75087;SDS011;63664;44.868;40.600;2023-02-13T04:39:58;2.08;;;1.63;;
75087;SDS011;63664;44.868;40.600;2023-02-13T04:42:24;2.38;;;1.48;;
75087;SDS011;63664;44.868;40.600;2023-02-13T04:44:52;2.00;;;0.98;;
75087;SDS011;63664;44.868;40.600;2023-02-13T04:47:21;1.90;;;1.23;;
75087;SDS011;63664;44.868;40.600;2023-02-13T04:49:47;2.63;;;1.27;;
75087;SDS011;63664;44.868;40.600;2023-02-13T04:52:13;2.75;;;1.27;;
75087;SDS011;63664;44.868;40.600;2023-02-13T04:54:40;3.05;;;1.50;;
75087;SDS011;63664;44.868;40.600;2023-02-13T04:57:06;2.78;;;2.00;;
75087;SDS011;63664;44.868;40.600;2023-02-13T04:59:35;4.25;;;1.65;;
75087;SDS011;63664;44.868;40.600;2023-02-13T05:02:05;4.63;;;1.67;;
75087;SDS011;63664;44.868;40.600;2023-02-13T05:04:32;2.88;;;1.63;;
75087;SDS011;63664;44.868;40.600;2023-02-13T05:07:02;5.00;;;1.48;;
75087;SDS011;63664;44.868;40.600;2023-02-13T05:09:30;3.22;;;1.45;;
75087;SDS011;63664;44.868;40.600;2023-02-13T05:11:59;2.60;;;1.40;;
75087;SDS011;63664;44.868;40.600;2023-02-13T05:14:26;7.20;;;2.00;;
75087;SDS011;63664;44.868;40.600;2023-02-13T05:16:54;5.18;;;1.48;;
75087;SDS011;63664;44.868;40.600;2023-02-13T05:19:23;2.28;;;1.70;;
75087;SDS011;63664;44.868;40.600;2023-02-13T05:21:52;2.70;;;1.48;;
75087;SDS011;63664;44.868;40.600;2023-02-13T05:24:39;3.65;;;1.88;;
75087;SDS011;63664;44.868;40.600;2023-02-13T05:27:08;5.13;;;1.63;;
75087;SDS011;63664;44.868;40.600;2023-02-13T05:29:34;4.03;;;2.15;;
75087;SDS011;63664;44.868;40.600;2023-02-13T05:32:00;5.15;;;1.90;;
75087;SDS011;63664;44.868;40.600;2023-02-13T05:34:27;3.55;;;1.77;;
75087;SDS011;63664;44.868;40.600;2023-02-13T05:36:54;2.53;;;1.45;;
75087;SDS011;63664;44.868;40.600;2023-02-13T05:39:23;7.78;;;3.38;;
75087;SDS011;63664;44.868;40.600;2023-02-13T05:41:49;3.60;;;1.48;;
75087;SDS011;63664;44.868;40.600;2023-02-13T05:44:23;3.78;;;1.48;;
75087;SDS011;63664;44.868;40.600;2023-02-13T05:46:52;2.63;;;1.48;;
75087;SDS011;63664;44.868;40.600;2023-02-13T05:49:25;2.38;;;1.42;;
75087;SDS011;63664;44.868;40.600;2023-02-13T05:51:54;3.03;;;1.67;;
75087;SDS011;63664;44.868;40.600;2023-02-13T05:54:23;5.78;;;2.13;;
75087;SDS011;63664;44.868;40.600;2023-02-13T05:56:49;3.88;;;2.05;;
75087;SDS011;63664;44.868;40.600;2023-02-13T05:59:18;3.90;;;1.35;;
75087;SDS011;63664;44.868;40.600;2023-02-13T06:01:47;3.15;;;1.50;;
75087;SDS011;63664;44.868;40.600;2023-02-13T06:04:15;2.67;;;1.55;;
75087;SDS011;63664;44.868;40.600;2023-02-13T06:06:45;3.42;;;1.45;;
75087;SDS011;63664;44.868;40.600;2023-02-13T06:09:11;1.80;;;0.95;;
75087;SDS011;63664;44.868;40.600;2023-02-13T06:11:37;2.92;;;1.20;;
75087;SDS011;63664;44.868;40.600;2023-02-13T06:14:04;3.50;;;1.50;;
75087;SDS011;63664;44.868;40.600;2023-02-13T06:16:30;2.20;;;1.25;;
75087;SDS011;63664;44.868;40.600;2023-02-13T06:18:59;4.43;;;1.63;;
75087;SDS011;63664;44.868;40.600;2023-02-13T06:21:25;2.15;;;0.98;;
75087;SDS011;63664;44.868;40.600;2023-02-13T06:23:52;5.38;;;1.60;;
75087;SDS011;63664;44.868;40.600;2023-02-13T06:26:18;2.35;;;1.50;;
75087;SDS011;63664;44.868;40.600;2023-02-13T06:28:44;3.17;;;1.40;;
75087;SDS011;63664;44.868;40.600;2023-02-13T06:31:16;2.95;;;1.00;;
75087;SDS011;63664;44.868;40.600;2023-02-13T06:33:42;2.72;;;1.63;;
75087;SDS011;63664;44.868;40.600;2023-02-13T06:36:09;4.35;;;1.70;;
75087;SDS011;63664;44.868;40.600;2023-02-13T06:38:37;4.20;;;1.92;;
75087;SDS011;63664;44.868;40.600;2023-02-13T06:41:04;4.40;;;1.83;;
75087;SDS011;63664;44.868;40.600;2023-02-13T06:43:31;2.83;;;1.73;;
75087;SDS011;63664;44.868;40.600;2023-02-13T06:46:04;4.03;;;1.60;;
75087;SDS011;63664;44.868;40.600;2023-02-13T06:48:31;2.97;;;1.33;;
75087;SDS011;63664;44.868;40.600;2023-02-13T06:50:58;5.40;;;2.00;;
75087;SDS011;63664;44.868;40.600;2023-02-13T06:53:27;4.78;;;1.70;;
75087;SDS011;63664;44.868;40.600;2023-02-13T06:56:04;6.88;;;2.28;;
75087;SDS011;63664;44.868;40.600;2023-02-13T06:58:31;2.70;;;1.50;;
75087;SDS011;63664;44.868;40.600;2023-02-13T07:00:58;5.28;;;1.85;;
75087;SDS011;63664;44.868;40.600;2023-02-13T07:03:25;2.05;;;1.00;;
75087;SDS011;63664;44.868;40.600;2023-02-13T07:05:51;4.07;;;1.27;;
75087;SDS011;63664;44.868;40.600;2023-02-13T07:08:17;2.78;;;1.75;;
75087;SDS011;63664;44.868;40.600;2023-02-13T07:10:44;4.40;;;1.70;;
75087;SDS011;63664;44.868;40.600;2023-02-13T07:13:12;5.22;;;1.27;;
75087;SDS011;63664;44.868;40.600;2023-02-13T07:15:39;3.67;;;1.63;;
75087;SDS011;63664;44.868;40.600;2023-02-13T07:18:08;3.63;;;1.73;;
75087;SDS011;63664;44.868;40.600;2023-02-13T07:20:34;4.82;;;1.98;;
75087;SDS011;63664;44.868;40.600;2023-02-13T07:23:04;3.58;;;1.83;;
75087;SDS011;63664;44.868;40.600;2023-02-13T07:25:34;3.42;;;1.48;;
75087;SDS011;63664;44.868;40.600;2023-02-13T07:28:04;8.10;;;2.20;;
75087;SDS011;63664;44.868;40.600;2023-02-13T07:30:36;4.68;;;1.35;;
75087;SDS011;63664;44.868;40.600;2023-02-13T07:33:03;4.30;;;1.70;;
75087;SDS011;63664;44.868;40.600;2023-02-13T07:35:32;5.18;;;1.60;;
75087;SDS011;63664;44.868;40.600;2023-02-13T07:38:07;3.15;;;1.63;;
75087;SDS011;63664;44.868;40.600;2023-02-13T07:40:36;2.75;;;1.35;;
75087;SDS011;63664;44.868;40.600;2023-02-13T07:43:07;2.58;;;1.38;;
75087;SDS011;63664;44.868;40.600;2023-02-13T07:45:37;2.25;;;1.10;;
75087;SDS011;63664;44.868;40.600;2023-02-13T07:48:06;5.00;;;1.25;;
75087;SDS011;63664;44.868;40.600;2023-02-13T07:50:32;7.28;;;1.80;;
75087;SDS011;63664;44.868;40.600;2023-02-13T07:53:04;3.50;;;1.17;;
75087;SDS011;63664;44.868;40.600;2023-02-13T07:55:33;4.28;;;1.42;;
75087;SDS011;63664;44.868;40.600;2023-02-13T07:57:59;5.93;;;1.48;;
75087;SDS011;63664;44.868;40.600;2023-02-13T08:00:26;3.80;;;1.50;;
75087;SDS011;63664;44.868;40.600;2023-02-13T08:02:52;3.15;;;1.85;;
75087;SDS011;63664;44.868;40.600;2023-02-13T08:05:19;2.55;;;1.77;;
75087;SDS011;63664;44.868;40.600;2023-02-13T08:07:45;2.60;;;1.27;;
75087;SDS011;63664;44.868;40.600;2023-02-13T08:10:12;3.25;;;1.45;;
75087;SDS011;63664;44.868;40.600;2023-02-13T08:12:59;5.90;;;1.88;;
75087;SDS011;63664;44.868;40.600;2023-02-13T08:15:26;2.92;;;1.08;;
75087;SDS011;63664;44.868;40.600;2023-02-13T08:17:54;2.20;;;1.30;;
75087;SDS011;63664;44.868;40.600;2023-02-13T08:20:21;3.60;;;1.65;;
75087;SDS011;63664;44.868;40.600;2023-02-13T08:22:48;1.85;;;1.10;;
75087;SDS011;63664;44.868;40.600;2023-02-13T08:25:15;3.58;;;1.35;;
75087;SDS011;63664;44.868;40.600;2023-02-13T08:27:41;3.30;;;2.05;;
75087;SDS011;63664;44.868;40.600;2023-02-13T08:30:08;2.78;;;1.40;;
75087;SDS011;63664;44.868;40.600;2023-02-13T08:32:37;3.35;;;1.27;;
75087;SDS011;63664;44.868;40.600;2023-02-13T08:35:03;1.65;;;0.95;;
75087;SDS011;63664;44.868;40.600;2023-02-13T08:37:33;5.18;;;1.50;;
75087;SDS011;63664;44.868;40.600;2023-02-13T08:39:59;4.65;;;2.00;;
75087;SDS011;63664;44.868;40.600;2023-02-13T08:42:29;3.75;;;1.95;;
75087;SDS011;63664;44.868;40.600;2023-02-13T08:44:55;4.38;;;1.50;;
75087;SDS011;63664;44.868;40.600;2023-02-13T08:47:25;7.20;;;1.67;;
75087;SDS011;63664;44.868;40.600;2023-02-13T08:49:51;3.85;;;1.70;;
75087;SDS011;63664;44.868;40.600;2023-02-13T08:52:17;8.57;;;1.92;;
75087;SDS011;63664;44.868;40.600;2023-02-13T08:54:46;4.00;;;1.30;;
75087;SDS011;63664;44.868;40.600;2023-02-13T08:57:15;2.38;;;1.20;;
75087;SDS011;63664;44.868;40.600;2023-02-13T08:59:47;2.90;;;1.25;;
75087;SDS011;63664;44.868;40.600;2023-02-13T09:02:15;1.75;;;1.20;;
75087;SDS011;63664;44.868;40.600;2023-02-13T09:04:47;1.20;;;0.85;;
75087;SDS011;63664;44.868;40.600;2023-02-13T09:07:22;3.03;;;1.70;;
75087;SDS011;63664;44.868;40.600;2023-02-13T09:09:53;3.60;;;1.35;;
75087;SDS011;63664;44.868;40.600;2023-02-13T09:12:26;2.45;;;1.40;;
75087;SDS011;63664;44.868;40.600;2023-02-13T09:14:52;2.45;;;1.40;;
75087;SDS011;63664;44.868;40.600;2023-02-13T09:17:18;3.53;;;1.95;;
75087;SDS011;63664;44.868;40.600;2023-02-13T09:19:45;3.72;;;1.27;;
75087;SDS011;63664;44.868;40.600;2023-02-13T09:22:14;3.38;;;1.55;;
75087;SDS011;63664;44.868;40.600;2023-02-13T09:24:43;1.48;;;0.88;;
75087;SDS011;63664;44.868;40.600;2023-02-13T09:27:12;1.98;;;1.30;;
75087;SDS011;63664;44.868;40.600;2023-02-13T09:29:39;2.83;;;1.58;;
75087;SDS011;63664;44.868;40.600;2023-02-13T09:32:07;2.10;;;1.55;;
75087;SDS011;63664;44.868;40.600;2023-02-13T09:34:36;1.65;;;1.20;;
75087;SDS011;63664;44.868;40.600;2023-02-13T09:37:04;4.22;;;1.95;;
75087;SDS011;63664;44.868;40.600;2023-02-13T09:39:30;4.65;;;2.33;;
75087;SDS011;63664;44.868;40.600;2023-02-13T09:41:57;5.57;;;2.05;;
75087;SDS011;63664;44.868;40.600;2023-02-13T09:49:51;3.08;;;1.52;;
75087;SDS011;63664;44.868;40.600;2023-02-13T09:52:23;2.45;;;1.10;;
75087;SDS011;63664;44.868;40.600;2023-02-13T09:54:55;4.05;;;1.23;;
75087;SDS011;63664;44.868;40.600;2023-02-13T09:57:35;5.82;;;1.15;;
75087;SDS011;63664;44.868;40.600;2023-02-13T10:00:22;1.50;;;0.95;;
75087;SDS011;63664;44.868;40.600;2023-02-13T10:08:10;2.00;;;0.90;;
75087;SDS011;63664;44.868;40.600;2023-02-13T10:13:49;1.63;;;1.00;;
75087;SDS011;63664;44.868;40.600;2023-02-13T10:19:35;1.50;;;0.77;;
75087;SDS011;63664;44.868;40.600;2023-02-13T10:25:15;4.45;;;1.35;;
75087;SDS011;63664;44.868;40.600;2023-02-13T10:27:48;1.98;;;1.42;;
75087;SDS011;63664;44.868;40.600;2023-02-13T10:30:28;1.25;;;0.82;;
75087;SDS011;63664;44.868;40.600;2023-02-13T10:39:23;3.53;;;1.10;;
75087;SDS011;63664;44.868;40.600;2023-02-13T10:44:22;1.35;;;1.00;;
75087;SDS011;63664;44.868;40.600;2023-02-13T10:49:45;6.68;;;1.67;;
75087;SDS011;63664;44.868;40.600;2023-02-13T11:03:27;1.45;;;0.85;;
75087;SDS011;63664;44.868;40.600;2023-02-13T11:05:55;4.63;;;1.33;;
75087;SDS011;63664;44.868;40.600;2023-02-13T11:08:25;0.88;;;0.55;;
75087;SDS011;63664;44.868;40.600;2023-02-13T11:10:59;2.53;;;1.27;;
75087;SDS011;63664;44.868;40.600;2023-02-13T11:13:28;3.25;;;1.00;;
75087;SDS011;63664;44.868;40.600;2023-02-13T11:15:56;1.38;;;0.80;;
75087;SDS011;63664;44.868;40.600;2023-02-13T11:18:35;1.67;;;0.88;;
75087;SDS011;63664;44.868;40.600;2023-02-13T11:21:21;1.95;;;0.65;;
75087;SDS011;63664;44.868;40.600;2023-02-13T11:24:01;4.63;;;0.88;;
75087;SDS011;63664;44.868;40.600;2023-02-13T11:26:34;4.93;;;1.35;;
75087;SDS011;63664;44.868;40.600;2023-02-13T11:29:05;2.28;;;1.00;;
75087;SDS011;63664;44.868;40.600;2023-02-13T11:31:59;3.38;;;1.05;;
75087;SDS011;63664;44.868;40.600;2023-02-13T11:34:28;2.75;;;1.10;;
75087;SDS011;63664;44.868;40.600;2023-02-13T11:39:38;2.08;;;1.13;;
75087;SDS011;63664;44.868;40.600;2023-02-13T11:42:16;1.42;;;0.75;;
75087;SDS011;63664;44.868;40.600;2023-02-13T11:44:56;0.95;;;0.60;;
75087;SDS011;63664;44.868;40.600;2023-02-13T11:47:43;2.20;;;1.10;;
75087;SDS011;63664;44.868;40.600;2023-02-13T11:53:00;2.40;;;0.88;;
75087;SDS011;63664;44.868;40.600;2023-02-13T11:55:43;1.95;;;1.05;;
75087;SDS011;63664;44.868;40.600;2023-02-13T12:00:40;5.13;;;1.10;;
75087;SDS011;63664;44.868;40.600;2023-02-13T12:08:29;3.17;;;1.10;;
75087;SDS011;63664;44.868;40.600;2023-02-13T12:10:57;1.83;;;0.98;;
75087;SDS011;63664;44.868;40.600;2023-02-13T12:15:59;2.22;;;1.08;;
75087;SDS011;63664;44.868;40.600;2023-02-13T12:18:51;0.40;;;0.40;;
75087;SDS011;63664;44.868;40.600;2023-02-13T12:24:36;1.92;;;0.80;;
75087;SDS011;63664;44.868;40.600;2023-02-13T12:27:25;0.95;;;0.90;;
75087;SDS011;63664;44.868;40.600;2023-02-13T12:32:41;0.82;;;0.63;;
75087;SDS011;63664;44.868;40.600;2023-02-13T12:35:39;2.60;;;1.33;;
75087;SDS011;63664;44.868;40.600;2023-02-13T12:38:38;5.32;;;0.73;;
75087;SDS011;63664;44.868;40.600;2023-02-13T12:41:13;1.48;;;0.80;;
75087;SDS011;63664;44.868;40.600;2023-02-13T12:44:04;0.95;;;0.50;;
75087;SDS011;63664;44.868;40.600;2023-02-13T12:46:39;5.38;;;1.23;;
75087;SDS011;63664;44.868;40.600;2023-02-13T12:54:46;1.55;;;0.88;;
75087;SDS011;63664;44.868;40.600;2023-02-13T13:05:59;1.27;;;1.10;;
75087;SDS011;63664;44.868;40.600;2023-02-13T13:19:57;0.70;;;0.50;;
75087;SDS011;63664;44.868;40.600;2023-02-13T13:22:47;5.65;;;1.00;;
75087;SDS011;63664;44.868;40.600;2023-02-13T13:28:01;1.00;;;0.60;;
75087;SDS011;63664;44.868;40.600;2023-02-13T13:30:39;1.02;;;0.70;;
75087;SDS011;63664;44.868;40.600;2023-02-13T13:35:46;1.00;;;0.75;;
75087;SDS011;63664;44.868;40.600;2023-02-13T13:52:10;3.25;;;0.50;;
75087;SDS011;63664;44.868;40.600;2023-02-13T13:54:46;7.47;;;0.88;;
75087;SDS011;63664;44.868;40.600;2023-02-13T13:58:01;17.73;;;1.10;;
75087;SDS011;63664;44.868;40.600;2023-02-13T14:05:18;2.85;;;0.80;;
75087;SDS011;63664;44.868;40.600;2023-02-13T14:07:54;0.85;;;0.60;;
75087;SDS011;63664;44.868;40.600;2023-02-13T14:20:40;3.88;;;1.33;;
75087;SDS011;63664;44.868;40.600;2023-02-13T14:28:55;6.65;;;2.17;;
75087;SDS011;63664;44.868;40.600;2023-02-13T14:31:37;1.42;;;0.88;;
75087;SDS011;63664;44.868;40.600;2023-02-13T14:34:19;3.80;;;1.50;;
75087;SDS011;63664;44.868;40.600;2023-02-13T14:42:36;5.57;;;2.08;;
75087;SDS011;63664;44.868;40.600;2023-02-13T14:45:04;4.75;;;2.13;;
75087;SDS011;63664;44.868;40.600;2023-02-13T14:47:50;2.90;;;1.48;;
75087;SDS011;63664;44.868;40.600;2023-02-13T14:50:29;5.63;;;2.53;;
75087;SDS011;63664;44.868;40.600;2023-02-13T14:53:09;3.45;;;1.85;;
75087;SDS011;63664;44.868;40.600;2023-02-13T14:55:44;4.55;;;1.38;;
75087;SDS011;63664;44.868;40.600;2023-02-13T14:58:15;4.40;;;2.05;;
75087;SDS011;63664;44.868;40.600;2023-02-13T15:06:42;3.88;;;1.50;;
75087;SDS011;63664;44.868;40.600;2023-02-13T15:12:00;5.40;;;2.45;;
75087;SDS011;63664;44.868;40.600;2023-02-13T15:17:03;4.35;;;2.17;;
75087;SDS011;63664;44.868;40.600;2023-02-13T15:19:43;4.90;;;2.58;;
75087;SDS011;63664;44.868;40.600;2023-02-13T15:22:21;2.80;;;1.30;;
75087;SDS011;63664;44.868;40.600;2023-02-13T15:25:06;3.75;;;1.95;;
75087;SDS011;63664;44.868;40.600;2023-02-13T15:27:37;4.10;;;1.98;;
75087;SDS011;63664;44.868;40.600;2023-02-13T15:30:18;2.97;;;1.60;;
75087;SDS011;63664;44.868;40.600;2023-02-13T15:33:02;3.95;;;1.73;;
75087;SDS011;63664;44.868;40.600;2023-02-13T15:35:40;3.65;;;1.92;;
75087;SDS011;63664;44.868;40.600;2023-02-13T15:40:58;1.17;;;0.90;;
75087;SDS011;63664;44.868;40.600;2023-02-13T15:43:36;2.67;;;1.88;;
75087;SDS011;63664;44.868;40.600;2023-02-13T15:46:06;1.48;;;1.13;;
75087;SDS011;63664;44.868;40.600;2023-02-13T15:48:45;5.68;;;2.42;;
75087;SDS011;63664;44.868;40.600;2023-02-13T15:51:19;2.33;;;1.67;;
75087;SDS011;63664;44.868;40.600;2023-02-13T15:53:54;2.42;;;1.25;;
75087;SDS011;63664;44.868;40.600;2023-02-13T15:56:43;2.72;;;1.65;;
75087;SDS011;63664;44.868;40.600;2023-02-13T15:59:10;1.10;;;0.90;;
75087;SDS011;63664;44.868;40.600;2023-02-13T16:01:40;1.83;;;1.50;;
75087;SDS011;63664;44.868;40.600;2023-02-13T16:04:17;3.67;;;1.15;;
75087;SDS011;63664;44.868;40.600;2023-02-13T16:06:48;2.30;;;1.25;;
75087;SDS011;63664;44.868;40.600;2023-02-13T16:09:25;3.05;;;1.05;;
75087;SDS011;63664;44.868;40.600;2023-02-13T16:14:52;2.95;;;1.23;;
75087;SDS011;63664;44.868;40.600;2023-02-13T16:17:26;3.53;;;1.27;;
75087;SDS011;63664;44.868;40.600;2023-02-13T16:22:55;0.82;;;0.75;;
75087;SDS011;63664;44.868;40.600;2023-02-13T16:25:33;1.40;;;0.90;;
75087;SDS011;63664;44.868;40.600;2023-02-13T16:28:10;1.77;;;0.73;;
75087;SDS011;63664;44.868;40.600;2023-02-13T16:30:44;1.38;;;0.65;;
75087;SDS011;63664;44.868;40.600;2023-02-13T16:33:21;1.55;;;0.82;;
75087;SDS011;63664;44.868;40.600;2023-02-13T16:38:38;3.47;;;1.30;;
75087;SDS011;63664;44.868;40.600;2023-02-13T16:43:45;3.08;;;0.93;;
75087;SDS011;63664;44.868;40.600;2023-02-13T16:54:04;2.47;;;1.08;;
75087;SDS011;63664;44.868;40.600;2023-02-13T16:56:53;4.38;;;1.15;;
75087;SDS011;63664;44.868;40.600;2023-02-13T16:59:27;6.57;;;1.63;;
75087;SDS011;63664;44.868;40.600;2023-02-13T17:02:22;2.67;;;1.10;;
75087;SDS011;63664;44.868;40.600;2023-02-13T17:04:52;0.93;;;0.73;;
75087;SDS011;63664;44.868;40.600;2023-02-13T17:07:45;1.02;;;0.85;;
75087;SDS011;63664;44.868;40.600;2023-02-13T17:10:24;1.13;;;0.65;;
75087;SDS011;63664;44.868;40.600;2023-02-13T17:15:44;3.13;;;0.90;;
75087;SDS011;63664;44.868;40.600;2023-02-13T17:18:12;1.98;;;1.13;;
75087;SDS011;63664;44.868;40.600;2023-02-13T17:20:42;1.70;;;1.10;;
75087;SDS011;63664;44.868;40.600;2023-02-13T17:23:15;3.67;;;1.40;;
75087;SDS011;63664;44.868;40.600;2023-02-13T17:25:48;3.40;;;1.35;;
75087;SDS011;63664;44.868;40.600;2023-02-13T17:28:22;1.20;;;1.00;;
75087;SDS011;63664;44.868;40.600;2023-02-13T17:30:51;1.80;;;0.82;;
75087;SDS011;63664;44.868;40.600;2023-02-13T17:33:27;4.20;;;1.10;;
75087;SDS011;63664;44.868;40.600;2023-02-13T17:35:59;3.03;;;0.90;;
75087;SDS011;63664;44.868;40.600;2023-02-13T17:38:28;5.65;;;1.20;;
75087;SDS011;63664;44.868;40.600;2023-02-13T17:40:54;0.98;;;0.68;;
75087;SDS011;63664;44.868;40.600;2023-02-13T17:43:20;3.17;;;1.30;;
75087;SDS011;63664;44.868;40.600;2023-02-13T17:45:47;2.10;;;0.88;;
75087;SDS011;63664;44.868;40.600;2023-02-13T17:48:14;1.08;;;0.80;;
75087;SDS011;63664;44.868;40.600;2023-02-13T17:50:43;2.67;;;1.05;;
75087;SDS011;63664;44.868;40.600;2023-02-13T17:53:33;2.35;;;1.15;;
75087;SDS011;63664;44.868;40.600;2023-02-13T17:55:59;2.50;;;0.60;;
75087;SDS011;63664;44.868;40.600;2023-02-13T17:58:27;1.50;;;0.60;;
75087;SDS011;63664;44.868;40.600;2023-02-13T18:00:53;3.47;;;1.55;;
75087;SDS011;63664;44.868;40.600;2023-02-13T18:03:22;11.52;;;4.35;;
75087;SDS011;63664;44.868;40.600;2023-02-13T18:05:52;14.82;;;3.90;;
75087;SDS011;63664;44.868;40.600;2023-02-13T18:08:18;15.30;;;4.53;;
75087;SDS011;63664;44.868;40.600;2023-02-13T18:10:44;13.32;;;4.50;;
75087;SDS011;63664;44.868;40.600;2023-02-13T18:13:11;14.30;;;4.28;;
75087;SDS011;63664;44.868;40.600;2023-02-13T18:15:41;10.23;;;2.83;;
75087;SDS011;63664;44.868;40.600;2023-02-13T18:18:09;11.75;;;1.98;;
75087;SDS011;63664;44.868;40.600;2023-02-13T18:20:36;14.30;;;4.63;;
75087;SDS011;63664;44.868;40.600;2023-02-13T18:23:04;14.55;;;5.65;;
75087;SDS011;63664;44.868;40.600;2023-02-13T18:25:31;30.92;;;6.90;;
75087;SDS011;63664;44.868;40.600;2023-02-13T18:28:00;33.08;;;8.57;;
75087;SDS011;63664;44.868;40.600;2023-02-13T18:30:27;7.50;;;2.03;;
75087;SDS011;63664;44.868;40.600;2023-02-13T18:32:59;28.15;;;7.93;;
75087;SDS011;63664;44.868;40.600;2023-02-13T18:35:33;36.95;;;8.55;;
75087;SDS011;63664;44.868;40.600;2023-02-13T18:38:01;36.85;;;8.75;;
75087;SDS011;63664;44.868;40.600;2023-02-13T18:40:28;15.15;;;3.55;;